KFMYKFXE

Guest
Details From KFMY - Page Fld
To KFXE - Fort Lauderdale Executive
Flight Number -
Tags decoded
Created
Modified
Stats Distance 100 nm / 185 km
Max Altitude 0 ft / 0 m
Waypoints 4
Social Downloads 2
Likes 0
Share VATSIM

Download

Looking for another format? Having issues loading an existing format? Contact us
Advertisement - Login to hide

Notes

Requested: KFMY FORTL KUBIC KFXE

Route

KFMY FORTL KUBIC KFXE

ID Type Via Altitude Latitude Longitude Leg Dist Tot Dist Heading (true) Name
O KFMY APT - 0 ft / 0 m 26.58672˚ -81.86316˚ - 0 nm - Page Fld
FORTL FIX - 0 ft / 0 m 26.30938˚ -81.35235˚ 32 nm 32 nm 121° / 121° -
KUBIC FIX - 0 ft / 0 m 26.09766˚ -80.94952˚ 25 nm 57 nm 120° / 120° -
O KFXE APT - 0 ft / 0 m 26.19698˚ -80.17044˚ 42 nm 99 nm 82° / 82° Fort Lauderdale Executive

Altitude Profile

Advertisement - Login to hide

KFMY

Details ICAO KFMY (FMY)
Name Page Fld
Region United States
Timezone America/New_York (UTC-5.0)
Stats Elevation 17 ft / 5 m (AMSL)
Location 26.586721° -81.863157°
Runways 2
Magnetic Variation 5.779° W

METAR

KFMY 111253Z 05004KT 9SM CLR 07/04 A3030 RMK AO2 SLP263 T00720044

Decode

TAF

KFMY 111134Z 1112/1212 04006KT P6SM SKC FM112000 34006KT P6SM FEW250 FM120100 VRB03KT P6SM SKC

Decode

Departure Runways

ID Width Length Bearing (true) Bearing (mag) Surface Threshold Offset Overrun Length
05 150 ft / 46 m 6,413 ft / 1,955 m 47.70° 53.48° Asphalt 459 ft / 140 m 0 ft / 0 m
13 150 ft / 46 m 4,915 ft / 1,498 m 130.63° 136.41° Asphalt 615 ft / 187 m 0 ft / 0 m
23 150 ft / 46 m 6,413 ft / 1,955 m 227.71° 233.49° Asphalt 399 ft / 122 m 0 ft / 0 m
31 150 ft / 46 m 4,915 ft / 1,498 m 310.64° 316.42° Asphalt 0 ft / 0 m 0 ft / 0 m

KFXE

Details ICAO KFXE (FXE)
Name Fort Lauderdale Executive
Region United States
Timezone America/New_York (UTC-5.0)
Stats Elevation 13 ft / 4 m (AMSL)
Location 26.196981° -80.170441°
Runways 2
Magnetic Variation 6.774° W

METAR

KFXE 111253Z 34008KT 10SM CLR 10/03 A3027 RMK AO2 SLP254 T01000028

Decode

TAF

TAF KFXE 111120Z 1112/1212 31005KT P6SM SKC FM111500 34007KT P6SM FEW030 FM120000 VRB02KT P6SM FEW030

Decode

Destination Runways

ID Width Length Bearing (true) Bearing (mag) Surface Threshold Offset Overrun Length
08 100 ft / 30 m 5,992 ft / 1,826 m 83.75° 90.52° Asphalt 0 ft / 0 m 0 ft / 0 m
13 100 ft / 30 m 4,002 ft / 1,220 m 128.95° 135.72° Asphalt 0 ft / 0 m 0 ft / 0 m
26 100 ft / 30 m 5,992 ft / 1,826 m 263.76° 270.53° Asphalt 0 ft / 0 m 0 ft / 0 m
31 100 ft / 30 m 4,002 ft / 1,220 m 308.95° 315.72° Asphalt 0 ft / 0 m 0 ft / 0 m

Approach Navaids

Runway Type Ident Frequency Range Bearing (true) Bearing (mag) Slope Elevation
08 Localiser IFXE 111.10 MHz 18 nm / 33 km 83.76° 90.53° - 9 ft / 3 m (AMSL)
08 Glidescope IFXE 111.10 MHz 10 nm / 19 km 83.76° 90.53° 3.00° 12 ft / 4 m (AMSL)